sensor_id;sensor_type;location;lat;lon;timestamp;pressure;altitude;pressure_sealevel;temperature;humidity
5380;BME280;2713;42.680;23.310;2022-10-23T00:01:46;95576.03;;;13.94;68.68
5380;BME280;2713;42.680;23.310;2022-10-23T00:04:16;95573.03;;;13.76;69.07
5380;BME280;2713;42.680;23.310;2022-10-23T00:06:45;95570.66;;;13.81;69.11
5380;BME280;2713;42.680;23.310;2022-10-23T00:09:13;95565.38;;;13.74;69.88
5380;BME280;2713;42.680;23.310;2022-10-23T00:11:42;95565.78;;;13.78;69.06
5380;BME280;2713;42.680;23.310;2022-10-23T00:14:12;95563.31;;;13.69;69.46
5380;BME280;2713;42.680;23.310;2022-10-23T00:16:41;95568.72;;;13.68;69.18
5380;BME280;2713;42.680;23.310;2022-10-23T00:19:08;95566.56;;;13.93;68.70
5380;BME280;2713;42.680;23.310;2022-10-23T00:21:35;95562.38;;;13.98;68.16
5380;BME280;2713;42.680;23.310;2022-10-23T00:24:02;95537.44;;;13.96;68.24
5380;BME280;2713;42.680;23.310;2022-10-23T00:26:29;95548.44;;;13.91;68.65
5380;BME280;2713;42.680;23.310;2022-10-23T00:28:56;95540.91;;;13.82;69.00
5380;BME280;2713;42.680;23.310;2022-10-23T00:31:23;95549.56;;;13.61;69.20
5380;BME280;2713;42.680;23.310;2022-10-23T00:33:52;95557.41;;;13.82;69.21
5380;BME280;2713;42.680;23.310;2022-10-23T00:36:20;95562.75;;;13.74;69.21
5380;BME280;2713;42.680;23.310;2022-10-23T00:38:48;95553.53;;;13.78;69.03
5380;BME280;2713;42.680;23.310;2022-10-23T00:41:17;95559.56;;;13.57;69.53
5380;BME280;2713;42.680;23.310;2022-10-23T00:43:56;95556.09;;;13.93;68.46
5380;BME280;2713;42.680;23.310;2022-10-23T00:46:24;95560.19;;;13.81;68.51
5380;BME280;2713;42.680;23.310;2022-10-23T00:48:52;95548.50;;;13.98;68.02
5380;BME280;2713;42.680;23.310;2022-10-23T00:51:20;95560.09;;;13.89;68.91
5380;BME280;2713;42.680;23.310;2022-10-23T00:53:49;95555.47;;;13.91;68.95
5380;BME280;2713;42.680;23.310;2022-10-23T00:56:18;95556.09;;;13.93;68.69
5380;BME280;2713;42.680;23.310;2022-10-23T00:58:45;95540.91;;;13.82;69.34
5380;BME280;2713;42.680;23.310;2022-10-23T01:01:17;95533.47;;;13.79;69.17
5380;BME280;2713;42.680;23.310;2022-10-23T01:03:46;95537.38;;;13.89;68.33
5380;BME280;2713;42.680;23.310;2022-10-23T01:06:20;95539.44;;;13.94;68.38
5380;BME280;2713;42.680;23.310;2022-10-23T01:08:55;95549.81;;;13.66;69.75
5380;BME280;2713;42.680;23.310;2022-10-23T01:11:29;95543.47;;;13.54;70.69
5380;BME280;2713;42.680;23.310;2022-10-23T01:14:02;95557.16;;;13.56;70.27
5380;BME280;2713;42.680;23.310;2022-10-23T01:16:37;95561.44;;;13.63;69.61
5380;BME280;2713;42.680;23.310;2022-10-23T01:19:11;95587.94;;;13.60;70.29
5380;BME280;2713;42.680;23.310;2022-10-23T01:21:53;95597.09;;;13.35;71.00
5380;BME280;2713;42.680;23.310;2022-10-23T01:24:30;95592.78;;;13.42;70.77
5380;BME280;2713;42.680;23.310;2022-10-23T01:27:23;95585.41;;;13.31;71.40
5380;BME280;2713;42.680;23.310;2022-10-23T01:30:00;95598.97;;;13.41;70.60
5380;BME280;2713;42.680;23.310;2022-10-23T01:32:43;95610.06;;;13.29;70.66
5380;BME280;2713;42.680;23.310;2022-10-23T01:35:15;95620.31;;;13.30;70.83
5380;BME280;2713;42.680;23.310;2022-10-23T01:37:52;95621.28;;;13.44;70.52
5380;BME280;2713;42.680;23.310;2022-10-23T01:40:23;95629.78;;;13.46;69.95
5380;BME280;2713;42.680;23.310;2022-10-23T01:42:54;95633.81;;;13.48;70.27
5380;BME280;2713;42.680;23.310;2022-10-23T01:45:27;95647.31;;;13.37;70.25
5380;BME280;2713;42.680;23.310;2022-10-23T01:48:00;95638.97;;;13.42;70.47
5380;BME280;2713;42.680;23.310;2022-10-23T01:50:29;95628.06;;;13.38;70.62
5380;BME280;2713;42.680;23.310;2022-10-23T01:53:01;95621.38;;;13.50;70.80
5380;BME280;2713;42.680;23.310;2022-10-23T01:55:29;95604.63;;;13.59;70.06
5380;BME280;2713;42.680;23.310;2022-10-23T01:57:59;95605.16;;;13.55;69.88
5380;BME280;2713;42.680;23.310;2022-10-23T02:00:35;95612.44;;;13.59;70.03
5380;BME280;2713;42.680;23.310;2022-10-23T02:03:05;95621.03;;;13.75;69.58
5380;BME280;2713;42.680;23.310;2022-10-23T02:05:33;95624.41;;;13.68;69.25
5380;BME280;2713;42.680;23.310;2022-10-23T02:08:03;95624.56;;;13.67;69.82
5380;BME280;2713;42.680;23.310;2022-10-23T02:10:45;95619.09;;;13.62;69.40
5380;BME280;2713;42.680;23.310;2022-10-23T02:13:22;95633.16;;;13.61;69.63
5380;BME280;2713;42.680;23.310;2022-10-23T02:15:57;95638.72;;;13.73;69.39
5380;BME280;2713;42.680;23.310;2022-10-23T02:18:32;95580.19;;;13.31;68.97
5380;BME280;2713;42.680;23.310;2022-10-23T02:21:06;95632.59;;;13.65;68.72
5380;BME280;2713;42.680;23.310;2022-10-23T02:23:38;95639.97;;;13.77;69.29
5380;BME280;2713;42.680;23.310;2022-10-23T02:26:08;95640.31;;;13.73;69.22
5380;BME280;2713;42.680;23.310;2022-10-23T02:28:43;95644.38;;;13.76;68.91
5380;BME280;2713;42.680;23.310;2022-10-23T02:31:13;95647.50;;;13.86;68.90
5380;BME280;2713;42.680;23.310;2022-10-23T02:33:42;95645.38;;;13.75;68.97
5380;BME280;2713;42.680;23.310;2022-10-23T02:36:10;95653.59;;;13.57;69.97
5380;BME280;2713;42.680;23.310;2022-10-23T02:38:39;95651.88;;;13.64;69.29
5380;BME280;2713;42.680;23.310;2022-10-23T02:41:21;95628.66;;;13.55;69.07
5380;BME280;2713;42.680;23.310;2022-10-23T02:44:02;95633.34;;;13.59;69.23
5380;BME280;2713;42.680;23.310;2022-10-23T02:46:36;95642.38;;;13.78;68.90
5380;BME280;2713;42.680;23.310;2022-10-23T02:49:12;95643.28;;;13.85;68.40
5380;BME280;2713;42.680;23.310;2022-10-23T02:51:52;95644.09;;;13.86;68.47
5380;BME280;2713;42.680;23.310;2022-10-23T02:54:32;95644.00;;;13.79;68.66
5380;BME280;2713;42.680;23.310;2022-10-23T02:57:05;95648.31;;;13.87;68.89
5380;BME280;2713;42.680;23.310;2022-10-23T02:59:42;95628.72;;;13.76;68.90
5380;BME280;2713;42.680;23.310;2022-10-23T03:02:17;95644.91;;;13.86;68.21
5380;BME280;2713;42.680;23.310;2022-10-23T03:04:49;95651.09;;;13.85;68.60
5380;BME280;2713;42.680;23.310;2022-10-23T03:07:18;95656.50;;;13.84;68.33
5380;BME280;2713;42.680;23.310;2022-10-23T03:09:45;95657.16;;;13.86;67.98
5380;BME280;2713;42.680;23.310;2022-10-23T03:12:12;95647.53;;;13.71;68.50
5380;BME280;2713;42.680;23.310;2022-10-23T03:14:41;95661.03;;;13.90;68.34
5380;BME280;2713;42.680;23.310;2022-10-23T03:17:08;95660.38;;;13.88;68.56
5380;BME280;2713;42.680;23.310;2022-10-23T03:19:35;95661.94;;;13.82;68.25
5380;BME280;2713;42.680;23.310;2022-10-23T03:22:03;95657.44;;;13.76;69.11
5380;BME280;2713;42.680;23.310;2022-10-23T03:24:30;95660.44;;;13.94;69.01
5380;BME280;2713;42.680;23.310;2022-10-23T03:26:57;95667.22;;;13.89;68.62
5380;BME280;2713;42.680;23.310;2022-10-23T03:29:29;95672.53;;;13.95;68.31
5380;BME280;2713;42.680;23.310;2022-10-23T03:31:58;95674.75;;;13.98;68.34
5380;BME280;2713;42.680;23.310;2022-10-23T03:34:25;95674.97;;;13.97;68.39
5380;BME280;2713;42.680;23.310;2022-10-23T03:36:52;95679.44;;;14.03;68.06
5380;BME280;2713;42.680;23.310;2022-10-23T03:39:19;95677.72;;;14.10;68.21
5380;BME280;2713;42.680;23.310;2022-10-23T03:41:47;95677.38;;;13.98;68.73
5380;BME280;2713;42.680;23.310;2022-10-23T03:44:15;95679.50;;;13.73;69.81
5380;BME280;2713;42.680;23.310;2022-10-23T03:46:43;95679.31;;;13.90;68.86
5380;BME280;2713;42.680;23.310;2022-10-23T03:49:11;95679.75;;;13.93;68.79
5380;BME280;2713;42.680;23.310;2022-10-23T03:51:42;95679.38;;;13.96;68.79
5380;BME280;2713;42.680;23.310;2022-10-23T03:54:11;95672.81;;;13.86;69.28
5380;BME280;2713;42.680;23.310;2022-10-23T03:56:38;95683.41;;;13.99;68.81
5380;BME280;2713;42.680;23.310;2022-10-23T03:59:06;95691.13;;;13.86;68.86
5380;BME280;2713;42.680;23.310;2022-10-23T04:01:33;95696.28;;;13.64;70.21
5380;BME280;2713;42.680;23.310;2022-10-23T04:04:00;95693.88;;;13.48;69.99
5380;BME280;2713;42.680;23.310;2022-10-23T04:06:29;95694.78;;;13.55;69.90
5380;BME280;2713;42.680;23.310;2022-10-23T04:08:57;95697.63;;;13.60;69.38
5380;BME280;2713;42.680;23.310;2022-10-23T04:11:24;95692.31;;;13.68;68.81
5380;BME280;2713;42.680;23.310;2022-10-23T04:13:51;95695.81;;;13.76;68.92
5380;BME280;2713;42.680;23.310;2022-10-23T04:16:18;95689.03;;;13.81;67.85
5380;BME280;2713;42.680;23.310;2022-10-23T04:18:45;95694.72;;;13.85;67.18
5380;BME280;2713;42.680;23.310;2022-10-23T04:21:12;95683.94;;;13.73;67.80
5380;BME280;2713;42.680;23.310;2022-10-23T04:23:40;95693.06;;;13.62;66.19
5380;BME280;2713;42.680;23.310;2022-10-23T04:26:17;95688.09;;;13.67;66.03
5380;BME280;2713;42.680;23.310;2022-10-23T04:28:44;95687.63;;;13.64;65.36
5380;BME280;2713;42.680;23.310;2022-10-23T04:31:10;95695.38;;;13.87;62.68
5380;BME280;2713;42.680;23.310;2022-10-23T04:33:40;95693.44;;;13.95;62.33
5380;BME280;2713;42.680;23.310;2022-10-23T04:36:07;95701.69;;;14.13;62.16
5380;BME280;2713;42.680;23.310;2022-10-23T04:38:34;95695.16;;;14.24;61.71
5380;BME280;2713;42.680;23.310;2022-10-23T04:41:03;95705.47;;;14.32;60.02
5380;BME280;2713;42.680;23.310;2022-10-23T04:43:30;95708.78;;;14.34;60.31
5380;BME280;2713;42.680;23.310;2022-10-23T04:45:58;95705.63;;;14.45;60.42
5380;BME280;2713;42.680;23.310;2022-10-23T04:48:25;95704.22;;;14.64;59.38
5380;BME280;2713;42.680;23.310;2022-10-23T04:51:12;95708.13;;;14.75;58.10
5380;BME280;2713;42.680;23.310;2022-10-23T04:54:02;95703.13;;;14.80;57.53
5380;BME280;2713;42.680;23.310;2022-10-23T04:57:03;95709.22;;;14.87;58.36
5380;BME280;2713;42.680;23.310;2022-10-23T04:59:45;95715.84;;;14.83;58.09
5380;BME280;2713;42.680;23.310;2022-10-23T05:02:13;95711.75;;;14.52;59.89
5380;BME280;2713;42.680;23.310;2022-10-23T05:04:40;95722.59;;;14.49;60.01
5380;BME280;2713;42.680;23.310;2022-10-23T05:07:32;95721.84;;;14.34;61.30
5380;BME280;2713;42.680;23.310;2022-10-23T05:10:18;95718.22;;;14.35;61.88
5380;BME280;2713;42.680;23.310;2022-10-23T05:12:56;95724.47;;;14.34;62.28
5380;BME280;2713;42.680;23.310;2022-10-23T05:15:23;95728.94;;;14.40;62.65
5380;BME280;2713;42.680;23.310;2022-10-23T05:17:51;95716.75;;;14.33;62.83
5380;BME280;2713;42.680;23.310;2022-10-23T05:20:26;95728.13;;;14.25;63.22
5380;BME280;2713;42.680;23.310;2022-10-23T05:22:55;95713.66;;;14.08;64.05
5380;BME280;2713;42.680;23.310;2022-10-23T05:25:25;95724.81;;;14.31;63.27
5380;BME280;2713;42.680;23.310;2022-10-23T05:28:03;95727.53;;;14.23;63.94
5380;BME280;2713;42.680;23.310;2022-10-23T05:30:31;95724.53;;;14.26;63.69
5380;BME280;2713;42.680;23.310;2022-10-23T05:33:00;95717.69;;;14.04;64.35
5380;BME280;2713;42.680;23.310;2022-10-23T05:35:32;95745.00;;;14.22;63.90
5380;BME280;2713;42.680;23.310;2022-10-23T05:38:00;95756.47;;;14.36;63.41
5380;BME280;2713;42.680;23.310;2022-10-23T05:40:28;95760.16;;;14.27;63.44
5380;BME280;2713;42.680;23.310;2022-10-23T05:43:01;95756.28;;;14.23;63.57
5380;BME280;2713;42.680;23.310;2022-10-23T05:45:55;95770.53;;;14.56;60.34
5380;BME280;2713;42.680;23.310;2022-10-23T05:48:28;95769.94;;;14.76;60.01
5380;BME280;2713;42.680;23.310;2022-10-23T05:51:13;95776.09;;;14.89;59.21
5380;BME280;2713;42.680;23.310;2022-10-23T05:53:51;95776.66;;;15.06;59.52
5380;BME280;2713;42.680;23.310;2022-10-23T05:56:41;95773.75;;;15.22;60.10
5380;BME280;2713;42.680;23.310;2022-10-23T05:59:19;95789.81;;;15.40;59.41
5380;BME280;2713;42.680;23.310;2022-10-23T06:02:12;95796.38;;;15.51;60.27
5380;BME280;2713;42.680;23.310;2022-10-23T06:04:48;95793.53;;;15.52;60.36
5380;BME280;2713;42.680;23.310;2022-10-23T06:07:36;95796.03;;;15.60;61.60
5380;BME280;2713;42.680;23.310;2022-10-23T06:10:05;95790.81;;;15.67;62.07
5380;BME280;2713;42.680;23.310;2022-10-23T06:12:37;95800.56;;;15.80;62.12
5380;BME280;2713;42.680;23.310;2022-10-23T06:15:07;95801.38;;;15.80;62.04
5380;BME280;2713;42.680;23.310;2022-10-23T06:17:52;95810.38;;;15.99;62.49
5380;BME280;2713;42.680;23.310;2022-10-23T06:20:19;95800.50;;;16.07;63.05
5380;BME280;2713;42.680;23.310;2022-10-23T06:22:58;95808.41;;;16.14;63.75
5380;BME280;2713;42.680;23.310;2022-10-23T06:25:50;95799.16;;;16.18;64.71
5380;BME280;2713;42.680;23.310;2022-10-23T06:28:19;95800.72;;;16.06;65.52
5380;BME280;2713;42.680;23.310;2022-10-23T06:30:48;95798.75;;;16.21;65.57
5380;BME280;2713;42.680;23.310;2022-10-23T06:33:14;95800.38;;;16.22;66.33
5380;BME280;2713;42.680;23.310;2022-10-23T06:35:41;95798.34;;;16.24;67.06
5380;BME280;2713;42.680;23.310;2022-10-23T06:38:10;95794.50;;;16.20;67.28
5380;BME280;2713;42.680;23.310;2022-10-23T06:40:43;95798.16;;;16.26;67.61
5380;BME280;2713;42.680;23.310;2022-10-23T06:43:19;95799.41;;;16.30;67.83
5380;BME280;2713;42.680;23.310;2022-10-23T06:46:17;95798.38;;;16.31;68.25
5380;BME280;2713;42.680;23.310;2022-10-23T06:49:04;95803.84;;;16.36;68.21
5380;BME280;2713;42.680;23.310;2022-10-23T06:51:37;95808.09;;;16.37;68.41
5380;BME280;2713;42.680;23.310;2022-10-23T06:54:09;95816.16;;;16.35;68.58
5380;BME280;2713;42.680;23.310;2022-10-23T06:56:45;95824.50;;;16.52;68.17
5380;BME280;2713;42.680;23.310;2022-10-23T06:59:16;95823.41;;;16.87;66.98
5380;BME280;2713;42.680;23.310;2022-10-23T07:01:46;95818.19;;;17.33;65.63
5380;BME280;2713;42.680;23.310;2022-10-23T07:04:13;95827.28;;;17.96;63.43
5380;BME280;2713;42.680;23.310;2022-10-23T07:06:41;95832.78;;;18.52;61.80
5380;BME280;2713;42.680;23.310;2022-10-23T07:09:09;95835.13;;;19.05;59.98
5380;BME280;2713;42.680;23.310;2022-10-23T07:11:51;95838.75;;;19.35;59.04
5380;BME280;2713;42.680;23.310;2022-10-23T07:14:22;95835.53;;;19.64;57.77
5380;BME280;2713;42.680;23.310;2022-10-23T07:16:50;95834.66;;;19.70;57.40
5380;BME280;2713;42.680;23.310;2022-10-23T07:19:18;95828.06;;;19.80;57.45
5380;BME280;2713;42.680;23.310;2022-10-23T07:22:02;95835.13;;;20.04;56.93
5380;BME280;2713;42.680;23.310;2022-10-23T07:24:42;95823.59;;;19.62;57.29
5380;BME280;2713;42.680;23.310;2022-10-23T07:27:19;95838.47;;;19.74;57.33
5380;BME280;2713;42.680;23.310;2022-10-23T07:29:53;95835.16;;;19.61;56.66
5380;BME280;2713;42.680;23.310;2022-10-23T07:32:22;95825.38;;;19.86;56.17
5380;BME280;2713;42.680;23.310;2022-10-23T07:35:30;95833.59;;;20.14;55.15
5380;BME280;2713;42.680;23.310;2022-10-23T07:38:04;95820.78;;;20.18;54.84
5380;BME280;2713;42.680;23.310;2022-10-23T07:40:36;95759.63;;;19.85;54.44
5380;BME280;2713;42.680;23.310;2022-10-23T07:43:05;95815.28;;;20.19;54.30
5380;BME280;2713;42.680;23.310;2022-10-23T07:45:33;95814.84;;;20.22;54.06
5380;BME280;2713;42.680;23.310;2022-10-23T07:48:08;95817.16;;;20.37;53.40
5380;BME280;2713;42.680;23.310;2022-10-23T07:51:02;95826.00;;;20.61;52.40
5380;BME280;2713;42.680;23.310;2022-10-23T07:53:34;95826.63;;;20.74;51.77
5380;BME280;2713;42.680;23.310;2022-10-23T07:56:33;95820.59;;;21.15;50.29
5380;BME280;2713;42.680;23.310;2022-10-23T07:59:12;95829.00;;;21.24;50.03
5380;BME280;2713;42.680;23.310;2022-10-23T08:01:42;95825.34;;;20.95;50.51
5380;BME280;2713;42.680;23.310;2022-10-23T08:04:13;95832.19;;;20.85;51.03
5380;BME280;2713;42.680;23.310;2022-10-23T08:06:51;95830.75;;;20.52;51.85
5380;BME280;2713;42.680;23.310;2022-10-23T08:09:18;95832.09;;;20.43;52.37
5380;BME280;2713;42.680;23.310;2022-10-23T08:11:46;95827.09;;;20.17;52.95
5380;BME280;2713;42.680;23.310;2022-10-23T08:14:16;95824.97;;;20.25;53.42
5380;BME280;2713;42.680;23.310;2022-10-23T08:16:44;95831.84;;;20.08;54.37
5380;BME280;2713;42.680;23.310;2022-10-23T08:19:35;95829.75;;;20.35;54.24
5380;BME280;2713;42.680;23.310;2022-10-23T08:22:02;95819.47;;;20.63;53.56
5380;BME280;2713;42.680;23.310;2022-10-23T08:24:29;95821.34;;;20.74;53.24
5380;BME280;2713;42.680;23.310;2022-10-23T08:26:56;95809.47;;;20.65;53.35
5380;BME280;2713;42.680;23.310;2022-10-23T08:29:24;95806.22;;;20.82;53.29
5380;BME280;2713;42.680;23.310;2022-10-23T08:31:53;95803.16;;;20.66;53.67
5380;BME280;2713;42.680;23.310;2022-10-23T08:34:43;95804.72;;;20.86;53.10
5380;BME280;2713;42.680;23.310;2022-10-23T08:37:10;95825.38;;;20.77;53.45
5380;BME280;2713;42.680;23.310;2022-10-23T08:39:37;95824.44;;;20.71;53.65
5380;BME280;2713;42.680;23.310;2022-10-23T08:42:27;95825.81;;;20.74;53.29
5380;BME280;2713;42.680;23.310;2022-10-23T08:45:04;95819.06;;;20.78;54.81
5380;BME280;2713;42.680;23.310;2022-10-23T08:47:38;95812.63;;;20.86;53.49
5380;BME280;2713;42.680;23.310;2022-10-23T08:50:13;95799.75;;;20.78;53.54
5380;BME280;2713;42.680;23.310;2022-10-23T08:52:50;95809.16;;;20.73;54.65
5380;BME280;2713;42.680;23.310;2022-10-23T08:55:22;95818.56;;;20.69;54.27
5380;BME280;2713;42.680;23.310;2022-10-23T08:57:56;95818.56;;;20.69;53.92
5380;BME280;2713;42.680;23.310;2022-10-23T09:00:24;95815.44;;;20.61;54.12
5380;BME280;2713;42.680;23.310;2022-10-23T09:02:52;95816.31;;;20.55;54.27
5380;BME280;2713;42.680;23.310;2022-10-23T09:05:26;95818.53;;;20.40;55.43
5380;BME280;2713;42.680;23.310;2022-10-23T09:08:07;95831.19;;;20.13;54.81
5380;BME280;2713;42.680;23.310;2022-10-23T09:10:49;95816.53;;;20.17;55.02
5380;BME280;2713;42.680;23.310;2022-10-23T09:16:16;95812.41;;;20.21;55.34
5380;BME280;2713;42.680;23.310;2022-10-23T09:18:46;95808.91;;;20.09;54.86
5380;BME280;2713;42.680;23.310;2022-10-23T09:21:15;95818.25;;;19.87;55.33
5380;BME280;2713;42.680;23.310;2022-10-23T09:23:42;95819.59;;;19.96;55.04
5380;BME280;2713;42.680;23.310;2022-10-23T09:26:12;95807.44;;;19.95;55.44
5380;BME280;2713;42.680;23.310;2022-10-23T09:28:45;95813.28;;;19.97;55.54
5380;BME280;2713;42.680;23.310;2022-10-23T09:31:12;95810.38;;;20.05;55.09
5380;BME280;2713;42.680;23.310;2022-10-23T09:33:39;95800.53;;;20.12;54.82
5380;BME280;2713;42.680;23.310;2022-10-23T09:36:14;95801.47;;;20.17;54.79
5380;BME280;2713;42.680;23.310;2022-10-23T09:38:50;95791.25;;;20.28;54.97
5380;BME280;2713;42.680;23.310;2022-10-23T09:41:20;95799.78;;;20.59;53.33
5380;BME280;2713;42.680;23.310;2022-10-23T09:43:59;95797.41;;;20.69;52.43
5380;BME280;2713;42.680;23.310;2022-10-23T09:46:36;95794.31;;;20.72;52.20
5380;BME280;2713;42.680;23.310;2022-10-23T09:49:03;95801.75;;;20.82;52.28
5380;BME280;2713;42.680;23.310;2022-10-23T09:51:32;95794.59;;;20.83;51.76
5380;BME280;2713;42.680;23.310;2022-10-23T09:54:00;95793.09;;;20.75;51.53
5380;BME280;2713;42.680;23.310;2022-10-23T09:56:29;95796.09;;;20.79;51.72
5380;BME280;2713;42.680;23.310;2022-10-23T09:58:58;95774.09;;;20.66;50.59
5380;BME280;2713;42.680;23.310;2022-10-23T10:01:28;95797.59;;;20.56;51.51
5380;BME280;2713;42.680;23.310;2022-10-23T10:04:08;95783.13;;;20.59;51.06
5380;BME280;2713;42.680;23.310;2022-10-23T10:06:35;95788.69;;;20.69;50.94
5380;BME280;2713;42.680;23.310;2022-10-23T10:09:07;95787.91;;;20.68;50.59
5380;BME280;2713;42.680;23.310;2022-10-23T10:11:38;95778.25;;;20.74;49.56
5380;BME280;2713;42.680;23.310;2022-10-23T10:14:38;95783.56;;;20.86;49.38
5380;BME280;2713;42.680;23.310;2022-10-23T10:17:16;95785.44;;;20.97;48.60
5380;BME280;2713;42.680;23.310;2022-10-23T10:19:58;95772.94;;;20.92;48.95
5380;BME280;2713;42.680;23.310;2022-10-23T10:22:32;95770.41;;;20.97;48.54
5380;BME280;2713;42.680;23.310;2022-10-23T10:25:09;95770.41;;;20.97;48.54
5380;BME280;2713;42.680;23.310;2022-10-23T10:27:44;95771.06;;;20.93;47.85
5380;BME280;2713;42.680;23.310;2022-10-23T10:30:18;95761.44;;;20.98;47.94
5380;BME280;2713;42.680;23.310;2022-10-23T10:32:50;95757.63;;;20.94;47.40
5380;BME280;2713;42.680;23.310;2022-10-23T10:35:26;95764.84;;;20.87;47.60
5380;BME280;2713;42.680;23.310;2022-10-23T10:38:05;95761.75;;;20.90;47.01
5380;BME280;2713;42.680;23.310;2022-10-23T10:40:40;95765.09;;;20.97;46.89
5380;BME280;2713;42.680;23.310;2022-10-23T10:43:17;95766.16;;;21.08;46.18
5380;BME280;2713;42.680;23.310;2022-10-23T10:45:56;95768.56;;;20.98;46.25
5380;BME280;2713;42.680;23.310;2022-10-23T10:48:38;95751.94;;;21.09;45.97
5380;BME280;2713;42.680;23.310;2022-10-23T10:51:37;95758.84;;;21.10;46.14
5380;BME280;2713;42.680;23.310;2022-10-23T10:54:17;95741.72;;;21.24;45.17
5380;BME280;2713;42.680;23.310;2022-10-23T10:56:48;95747.59;;;21.38;44.96
5380;BME280;2713;42.680;23.310;2022-10-23T10:59:19;95755.56;;;21.61;44.76
5380;BME280;2713;42.680;23.310;2022-10-23T11:01:53;95741.97;;;21.92;44.65
5380;BME280;2713;42.680;23.310;2022-10-23T11:04:29;95743.44;;;22.00;44.24
5380;BME280;2713;42.680;23.310;2022-10-23T11:07:00;95743.09;;;22.08;43.71
5380;BME280;2713;42.680;23.310;2022-10-23T11:09:31;95746.97;;;22.29;43.43
5380;BME280;2713;42.680;23.310;2022-10-23T11:11:59;95734.59;;;22.34;43.44
5380;BME280;2713;42.680;23.310;2022-10-23T11:14:28;95739.81;;;22.29;43.24
5380;BME280;2713;42.680;23.310;2022-10-23T11:17:02;95733.25;;;22.20;43.27
5380;BME280;2713;42.680;23.310;2022-10-23T11:19:34;95733.84;;;22.22;43.08
5380;BME280;2713;42.680;23.310;2022-10-23T11:22:07;95723.28;;;22.10;43.26
5380;BME280;2713;42.680;23.310;2022-10-23T11:25:20;95708.22;;;22.11;43.39
5380;BME280;2713;42.680;23.310;2022-10-23T11:28:17;95707.72;;;22.14;44.00
5380;BME280;2713;42.680;23.310;2022-10-23T11:31:03;95703.78;;;22.16;43.90
5380;BME280;2713;42.680;23.310;2022-10-23T11:33:58;95702.53;;;22.19;43.57
5380;BME280;2713;42.680;23.310;2022-10-23T11:36:44;95697.34;;;22.12;44.15
5380;BME280;2713;42.680;23.310;2022-10-23T11:39:19;95694.97;;;22.11;44.45
5380;BME280;2713;42.680;23.310;2022-10-23T11:41:52;95687.97;;;22.33;44.10
5380;BME280;2713;42.680;23.310;2022-10-23T11:44:40;95690.78;;;22.43;43.95
5380;BME280;2713;42.680;23.310;2022-10-23T11:47:27;95683.91;;;22.42;43.94
5380;BME280;2713;42.680;23.310;2022-10-23T11:50:28;95664.41;;;22.48;43.78
5380;BME280;2713;42.680;23.310;2022-10-23T11:53:01;95675.56;;;22.50;43.99
5380;BME280;2713;42.680;23.310;2022-10-23T11:55:30;95673.06;;;22.44;43.59
5380;BME280;2713;42.680;23.310;2022-10-23T11:58:19;95677.34;;;22.33;42.82
5380;BME280;2713;42.680;23.310;2022-10-23T12:00:58;95674.16;;;22.31;42.79
5380;BME280;2713;42.680;23.310;2022-10-23T12:03:33;95661.09;;;22.13;42.94
5380;BME280;2713;42.680;23.310;2022-10-23T12:06:04;95669.16;;;22.18;42.99
5380;BME280;2713;42.680;23.310;2022-10-23T12:08:42;95669.91;;;22.02;43.88
5380;BME280;2713;42.680;23.310;2022-10-23T12:11:26;95658.03;;;22.04;43.95
5380;BME280;2713;42.680;23.310;2022-10-23T12:13:53;95660.34;;;22.01;43.69
5380;BME280;2713;42.680;23.310;2022-10-23T12:16:33;95667.94;;;21.97;43.69
5380;BME280;2713;42.680;23.310;2022-10-23T12:19:14;95661.50;;;22.05;43.42
5380;BME280;2713;42.680;23.310;2022-10-23T12:21:43;95667.16;;;21.97;43.30
5380;BME280;2713;42.680;23.310;2022-10-23T12:24:21;95664.03;;;22.00;43.34
5380;BME280;2713;42.680;23.310;2022-10-23T12:27:17;95660.59;;;21.76;42.74
5380;BME280;2713;42.680;23.310;2022-10-23T12:29:56;95659.31;;;21.79;42.81
5380;BME280;2713;42.680;23.310;2022-10-23T12:32:44;95662.91;;;21.72;43.07
5380;BME280;2713;42.680;23.310;2022-10-23T12:35:55;95648.72;;;21.50;43.63
5380;BME280;2713;42.680;23.310;2022-10-23T12:38:49;95650.88;;;21.53;43.51
5380;BME280;2713;42.680;23.310;2022-10-23T12:41:23;95661.34;;;21.60;43.08
5380;BME280;2713;42.680;23.310;2022-10-23T12:43:52;95656.75;;;21.55;43.51
5380;BME280;2713;42.680;23.310;2022-10-23T12:46:34;95650.88;;;21.42;43.46
5380;BME280;2713;42.680;23.310;2022-10-23T12:49:13;95655.13;;;21.54;43.65
5380;BME280;2713;42.680;23.310;2022-10-23T12:51:43;95661.00;;;21.45;44.20
5380;BME280;2713;42.680;23.310;2022-10-23T12:54:16;95654.13;;;21.44;44.20
5380;BME280;2713;42.680;23.310;2022-10-23T12:56:44;95657.66;;;21.38;44.01
5380;BME280;2713;42.680;23.310;2022-10-23T12:59:26;95664.72;;;21.44;44.37
5380;BME280;2713;42.680;23.310;2022-10-23T13:01:55;95644.44;;;21.38;43.87
5380;BME280;2713;42.680;23.310;2022-10-23T13:04:27;95669.19;;;21.43;44.38
5380;BME280;2713;42.680;23.310;2022-10-23T13:06:58;95643.41;;;21.27;44.32
5380;BME280;2713;42.680;23.310;2022-10-23T13:09:28;95669.41;;;21.42;43.88
5380;BME280;2713;42.680;23.310;2022-10-23T13:12:22;95647.91;;;21.38;43.47
5380;BME280;2713;42.680;23.310;2022-10-23T13:14:57;95669.53;;;21.47;43.65
5380;BME280;2713;42.680;23.310;2022-10-23T13:17:33;95662.50;;;21.52;43.75
5380;BME280;2713;42.680;23.310;2022-10-23T13:20:27;95676.75;;;21.51;43.69
5380;BME280;2713;42.680;23.310;2022-10-23T13:23:00;95664.00;;;21.48;43.92
5380;BME280;2713;42.680;23.310;2022-10-23T13:25:29;95667.44;;;21.60;43.52
5380;BME280;2713;42.680;23.310;2022-10-23T13:28:21;95655.78;;;21.61;43.41
5380;BME280;2713;42.680;23.310;2022-10-23T13:31:20;95650.75;;;21.48;43.24
5380;BME280;2713;42.680;23.310;2022-10-23T13:33:50;95671.59;;;21.56;43.02
5380;BME280;2713;42.680;23.310;2022-10-23T13:36:22;95678.72;;;21.56;42.95
5380;BME280;2713;42.680;23.310;2022-10-23T13:39:00;95674.34;;;21.50;43.44
5380;BME280;2713;42.680;23.310;2022-10-23T13:41:29;95674.56;;;21.48;43.75
5380;BME280;2713;42.680;23.310;2022-10-23T13:43:56;95672.50;;;21.50;43.64
5380;BME280;2713;42.680;23.310;2022-10-23T13:46:23;95663.78;;;21.50;43.32
5380;BME280;2713;42.680;23.310;2022-10-23T13:48:50;95677.34;;;21.42;43.54
5380;BME280;2713;42.680;23.310;2022-10-23T13:51:21;95676.88;;;21.45;43.65